sensor_id;sensor_type;location;lat;lon;timestamp;pressure;altitude;pressure_sealevel;temperature;humidity
64841;BME280;51307;52.162;7.560;2023-12-04T00:00:03;101080.47;;;0.67;79.48
64841;BME280;51307;52.162;7.560;2023-12-04T00:02:29;101068.91;;;0.70;79.65
64841;BME280;51307;52.162;7.560;2023-12-04T00:04:54;101068.19;;;0.82;78.95
64841;BME280;51307;52.162;7.560;2023-12-04T00:07:20;101056.69;;;0.68;79.76
64841;BME280;51307;52.162;7.560;2023-12-04T00:09:45;101052.56;;;0.48;79.88
64841;BME280;51307;52.162;7.560;2023-12-04T00:12:11;101048.91;;;0.51;80.02
64841;BME280;51307;52.162;7.560;2023-12-04T00:14:36;101057.56;;;0.83;79.09
64841;BME280;51307;52.162;7.560;2023-12-04T00:17:02;101049.38;;;0.74;79.65
64841;BME280;51307;52.162;7.560;2023-12-04T00:19:28;101042.25;;;0.60;80.50
64841;BME280;51307;52.162;7.560;2023-12-04T00:21:53;101040.91;;;0.83;79.09
64841;BME280;51307;52.162;7.560;2023-12-04T00:24:18;101032.03;;;0.70;79.24
64841;BME280;51307;52.162;7.560;2023-12-04T00:26:44;101037.22;;;0.71;79.64
64841;BME280;51307;52.162;7.560;2023-12-04T00:29:09;101022.94;;;0.75;79.27
64841;BME280;51307;52.162;7.560;2023-12-04T00:31:35;101023.81;;;0.60;80.24
64841;BME280;51307;52.162;7.560;2023-12-04T00:34:00;101016.88;;;0.59;80.92
64841;BME280;51307;52.162;7.560;2023-12-04T00:36:26;101006.00;;;0.79;79.89
64841;BME280;51307;52.162;7.560;2023-12-04T00:38:52;101012.00;;;0.67;80.03
64841;BME280;51307;52.162;7.560;2023-12-04T00:41:18;101012.50;;;0.74;79.67
64841;BME280;51307;52.162;7.560;2023-12-04T00:43:43;101004.00;;;0.68;79.45
64841;BME280;51307;52.162;7.560;2023-12-04T00:46:09;100994.97;;;0.73;79.94
64841;BME280;51307;52.162;7.560;2023-12-04T00:48:34;100993.81;;;0.62;80.22
64841;BME280;51307;52.162;7.560;2023-12-04T00:51:00;101006.06;;;0.63;80.41
64841;BME280;51307;52.162;7.560;2023-12-04T00:53:25;101011.44;;;0.62;80.01
64841;BME280;51307;52.162;7.560;2023-12-04T00:55:51;100994.66;;;0.48;80.66
64841;BME280;51307;52.162;7.560;2023-12-04T00:58:16;101011.13;;;0.66;79.76
64841;BME280;51307;52.162;7.560;2023-12-04T01:00:42;101002.97;;;0.71;79.85
64841;BME280;51307;52.162;7.560;2023-12-04T01:03:07;100997.19;;;0.50;80.84
64841;BME280;51307;52.162;7.560;2023-12-04T01:05:33;100981.09;;;0.55;81.17
64841;BME280;51307;52.162;7.560;2023-12-04T01:07:58;100978.31;;;0.58;80.35
64841;BME280;51307;52.162;7.560;2023-12-04T01:10:23;100974.66;;;0.60;79.91
64841;BME280;51307;52.162;7.560;2023-12-04T01:12:49;100982.38;;;0.78;79.62
64841;BME280;51307;52.162;7.560;2023-12-04T01:15:15;100989.44;;;0.63;80.09
64841;BME280;51307;52.162;7.560;2023-12-04T01:17:40;100971.63;;;0.52;80.79
64841;BME280;51307;52.162;7.560;2023-12-04T01:20:07;100969.47;;;0.59;80.63
64841;BME280;51307;52.162;7.560;2023-12-04T01:22:32;100957.53;;;0.67;79.92
64841;BME280;51307;52.162;7.560;2023-12-04T01:24:58;100958.38;;;0.54;79.81
64841;BME280;51307;52.162;7.560;2023-12-04T01:27:23;100956.22;;;0.75;79.61
64841;BME280;51307;52.162;7.560;2023-12-04T01:29:49;100948.88;;;0.51;80.60
64841;BME280;51307;52.162;7.560;2023-12-04T01:32:14;100951.06;;;0.59;80.66
64841;BME280;51307;52.162;7.560;2023-12-04T01:34:40;100955.03;;;0.80;79.91
64841;BME280;51307;52.162;7.560;2023-12-04T01:37:05;100953.41;;;0.63;80.12
64841;BME280;51307;52.162;7.560;2023-12-04T01:39:31;100944.16;;;0.71;79.78
64841;BME280;51307;52.162;7.560;2023-12-04T01:41:56;100937.63;;;0.78;79.90
64841;BME280;51307;52.162;7.560;2023-12-04T01:44:22;100940.53;;;0.88;79.21
64841;BME280;51307;52.162;7.560;2023-12-04T01:46:48;100937.31;;;0.82;79.32
64841;BME280;51307;52.162;7.560;2023-12-04T01:49:14;100935.91;;;0.77;79.44
64841;BME280;51307;52.162;7.560;2023-12-04T01:51:40;100935.16;;;0.75;79.66
64841;BME280;51307;52.162;7.560;2023-12-04T01:54:07;100926.88;;;0.66;80.08
64841;BME280;51307;52.162;7.560;2023-12-04T01:56:34;100928.66;;;0.66;80.05
64841;BME280;51307;52.162;7.560;2023-12-04T01:59:01;100921.50;;;0.82;79.51
64841;BME280;51307;52.162;7.560;2023-12-04T02:01:27;100921.59;;;0.66;80.34
64841;BME280;51307;52.162;7.560;2023-12-04T02:03:53;100935.16;;;0.75;79.81
64841;BME280;51307;52.162;7.560;2023-12-04T02:06:19;100915.56;;;0.79;79.78
64841;BME280;51307;52.162;7.560;2023-12-04T02:08:48;100912.38;;;0.88;79.27
64841;BME280;51307;52.162;7.560;2023-12-04T02:11:14;100909.00;;;0.86;79.45
64841;BME280;51307;52.162;7.560;2023-12-04T02:13:39;100912.94;;;0.79;79.40
64841;BME280;51307;52.162;7.560;2023-12-04T02:16:09;100907.31;;;0.71;79.35
64841;BME280;51307;52.162;7.560;2023-12-04T02:18:36;100906.00;;;0.78;79.15
64841;BME280;51307;52.162;7.560;2023-12-04T02:21:02;100904.78;;;0.83;79.12
64841;BME280;51307;52.162;7.560;2023-12-04T02:23:28;100905.16;;;0.92;78.49
64841;BME280;51307;52.162;7.560;2023-12-04T02:26:04;100902.59;;;0.90;78.40
64841;BME280;51307;52.162;7.560;2023-12-04T02:28:33;100896.97;;;0.67;79.30
64841;BME280;51307;52.162;7.560;2023-12-04T02:31:00;100894.59;;;0.92;79.20
64841;BME280;51307;52.162;7.560;2023-12-04T02:33:27;100877.41;;;0.72;79.45
64841;BME280;51307;52.162;7.560;2023-12-04T02:35:55;100884.63;;;0.82;78.52
64841;BME280;51307;52.162;7.560;2023-12-04T02:38:23;100884.44;;;0.85;78.70
64841;BME280;51307;52.162;7.560;2023-12-04T02:40:49;100876.16;;;0.77;78.65
64841;BME280;51307;52.162;7.560;2023-12-04T02:43:15;100883.22;;;0.62;79.09
64841;BME280;51307;52.162;7.560;2023-12-04T02:45:40;100880.97;;;0.71;78.51
64841;BME280;51307;52.162;7.560;2023-12-04T02:48:06;100879.47;;;0.66;79.31
64841;BME280;51307;52.162;7.560;2023-12-04T02:50:32;100878.88;;;0.61;79.42
64841;BME280;51307;52.162;7.560;2023-12-04T02:52:57;100870.72;;;0.66;79.29
64841;BME280;51307;52.162;7.560;2023-12-04T02:55:23;100871.47;;;0.68;79.10
64841;BME280;51307;52.162;7.560;2023-12-04T02:57:48;100865.72;;;0.61;79.31
64841;BME280;51307;52.162;7.560;2023-12-04T03:00:15;100856.88;;;0.77;78.82
64841;BME280;51307;52.162;7.560;2023-12-04T03:02:40;100866.66;;;0.75;78.46
64841;BME280;51307;52.162;7.560;2023-12-04T03:05:06;100862.72;;;0.67;78.49
64841;BME280;51307;52.162;7.560;2023-12-04T03:07:31;100864.44;;;0.68;78.08
64841;BME280;51307;52.162;7.560;2023-12-04T03:09:57;100860.00;;;0.83;77.78
64841;BME280;51307;52.162;7.560;2023-12-04T03:12:22;100848.31;;;0.73;77.73
64841;BME280;51307;52.162;7.560;2023-12-04T03:14:48;100850.69;;;0.78;77.99
64841;BME280;51307;52.162;7.560;2023-12-04T03:17:14;100846.34;;;0.91;77.17
64841;BME280;51307;52.162;7.560;2023-12-04T03:19:39;100852.28;;;0.66;77.66
64841;BME280;51307;52.162;7.560;2023-12-04T03:22:05;100833.19;;;0.77;77.25
64841;BME280;51307;52.162;7.560;2023-12-04T03:24:30;100833.56;;;0.71;77.56
64841;BME280;51307;52.162;7.560;2023-12-04T03:26:56;100835.47;;;0.54;78.35
64841;BME280;51307;52.162;7.560;2023-12-04T03:29:21;100835.81;;;0.62;77.88
64841;BME280;51307;52.162;7.560;2023-12-04T03:31:47;100829.81;;;0.60;77.86
64841;BME280;51307;52.162;7.560;2023-12-04T03:34:12;100816.56;;;0.76;76.97
64841;BME280;51307;52.162;7.560;2023-12-04T03:36:38;100820.69;;;0.66;77.24
64841;BME280;51307;52.162;7.560;2023-12-04T03:39:03;100816.66;;;0.60;77.70
64841;BME280;51307;52.162;7.560;2023-12-04T03:41:29;100813.72;;;0.65;77.24
64841;BME280;51307;52.162;7.560;2023-12-04T03:43:55;100811.66;;;0.70;76.93
64841;BME280;51307;52.162;7.560;2023-12-04T03:46:20;100811.63;;;0.84;76.43
64841;BME280;51307;52.162;7.560;2023-12-04T03:48:46;100808.00;;;0.58;76.97
64841;BME280;51307;52.162;7.560;2023-12-04T03:51:11;100802.56;;;0.47;77.63
64841;BME280;51307;52.162;7.560;2023-12-04T03:53:37;100794.94;;;0.57;77.20
64841;BME280;51307;52.162;7.560;2023-12-04T03:56:02;100795.59;;;0.46;77.58
64841;BME280;51307;52.162;7.560;2023-12-04T03:58:28;100792.41;;;0.55;77.60
64841;BME280;51307;52.162;7.560;2023-12-04T04:00:53;100792.03;;;0.47;77.52
64841;BME280;51307;52.162;7.560;2023-12-04T04:03:19;100788.16;;;0.53;77.23
64841;BME280;51307;52.162;7.560;2023-12-04T04:05:44;100785.72;;;0.49;77.32
64841;BME280;51307;52.162;7.560;2023-12-04T04:08:10;100783.72;;;0.53;77.36
64841;BME280;51307;52.162;7.560;2023-12-04T04:10:36;100777.78;;;0.64;76.57
64841;BME280;51307;52.162;7.560;2023-12-04T04:13:02;100777.63;;;0.53;77.18
64841;BME280;51307;52.162;7.560;2023-12-04T04:15:27;100773.09;;;0.69;76.59
64841;BME280;51307;52.162;7.560;2023-12-04T04:17:53;100767.47;;;0.61;76.94
64841;BME280;51307;52.162;7.560;2023-12-04T04:20:18;100777.97;;;0.75;76.21
64841;BME280;51307;52.162;7.560;2023-12-04T04:22:44;100768.22;;;0.63;76.37
64841;BME280;51307;52.162;7.560;2023-12-04T04:25:12;100767.09;;;0.53;77.10
64841;BME280;51307;52.162;7.560;2023-12-04T04:27:37;100770.19;;;0.74;75.87
64841;BME280;51307;52.162;7.560;2023-12-04T04:30:03;100766.72;;;0.59;76.80
64841;BME280;51307;52.162;7.560;2023-12-04T04:32:28;100769.63;;;0.54;77.08
64841;BME280;51307;52.162;7.560;2023-12-04T04:34:54;100768.22;;;0.63;76.17
64841;BME280;51307;52.162;7.560;2023-12-04T04:37:20;100768.03;;;0.66;76.66
64841;BME280;51307;52.162;7.560;2023-12-04T04:39:45;100764.00;;;0.60;76.93
64841;BME280;51307;52.162;7.560;2023-12-04T04:42:11;100763.69;;;0.65;76.42
64841;BME280;51307;52.162;7.560;2023-12-04T04:44:37;100763.22;;;0.58;76.30
64841;BME280;51307;52.162;7.560;2023-12-04T04:47:02;100757.75;;;0.61;76.82
64841;BME280;51307;52.162;7.560;2023-12-04T04:49:28;100753.38;;;0.89;75.13
64841;BME280;51307;52.162;7.560;2023-12-04T04:51:53;100752.34;;;0.50;76.77
64841;BME280;51307;52.162;7.560;2023-12-04T04:54:19;100755.81;;;0.50;76.77
64841;BME280;51307;52.162;7.560;2023-12-04T04:56:44;100746.63;;;0.85;75.70
64841;BME280;51307;52.162;7.560;2023-12-04T04:59:10;100745.00;;;0.55;76.77
64841;BME280;51307;52.162;7.560;2023-12-04T05:01:35;100743.28;;;0.68;76.59
64841;BME280;51307;52.162;7.560;2023-12-04T05:04:02;100742.34;;;0.70;75.61
64841;BME280;51307;52.162;7.560;2023-12-04T05:06:28;100732.66;;;0.70;75.86
64841;BME280;51307;52.162;7.560;2023-12-04T05:08:53;100736.53;;;0.92;74.89
64841;BME280;51307;52.162;7.560;2023-12-04T05:11:19;100739.50;;;0.73;75.93
64841;BME280;51307;52.162;7.560;2023-12-04T05:13:45;100737.19;;;0.95;74.88
64841;BME280;51307;52.162;7.560;2023-12-04T05:16:11;100731.59;;;0.73;75.79
64841;BME280;51307;52.162;7.560;2023-12-04T05:18:38;100725.56;;;0.71;75.61
64841;BME280;51307;52.162;7.560;2023-12-04T05:21:11;100721.41;;;0.81;75.54
64841;BME280;51307;52.162;7.560;2023-12-04T05:23:37;100714.19;;;0.97;74.63
64841;BME280;51307;52.162;7.560;2023-12-04T05:26:05;100717.50;;;0.74;75.47
64841;BME280;51307;52.162;7.560;2023-12-04T05:28:30;100714.34;;;0.81;75.71
64841;BME280;51307;52.162;7.560;2023-12-04T05:30:56;100716.47;;;0.76;75.18
64841;BME280;51307;52.162;7.560;2023-12-04T05:33:21;100714.75;;;0.75;75.30
64841;BME280;51307;52.162;7.560;2023-12-04T05:35:49;100712.47;;;0.83;75.09
64841;BME280;51307;52.162;7.560;2023-12-04T05:38:18;100708.38;;;0.65;75.88
64841;BME280;51307;52.162;7.560;2023-12-04T05:40:43;100708.63;;;0.75;75.49
64841;BME280;51307;52.162;7.560;2023-12-04T05:43:09;100696.00;;;0.80;75.19
64841;BME280;51307;52.162;7.560;2023-12-04T05:45:35;100707.50;;;0.79;74.96
64841;BME280;51307;52.162;7.560;2023-12-04T05:48:00;100712.13;;;1.02;74.48
64841;BME280;51307;52.162;7.560;2023-12-04T05:50:26;100711.69;;;0.68;75.72
64841;BME280;51307;52.162;7.560;2023-12-04T05:52:51;100702.75;;;0.71;75.37
64841;BME280;51307;52.162;7.560;2023-12-04T05:55:17;100701.03;;;0.70;75.96
64841;BME280;51307;52.162;7.560;2023-12-04T05:57:44;100702.31;;;0.77;75.44
64841;BME280;51307;52.162;7.560;2023-12-04T06:00:10;100702.63;;;0.73;75.45
64841;BME280;51307;52.162;7.560;2023-12-04T06:02:42;100702.78;;;0.84;75.37
64841;BME280;51307;52.162;7.560;2023-12-04T06:05:09;100696.91;;;0.93;74.73
64841;BME280;51307;52.162;7.560;2023-12-04T06:07:35;100706.97;;;0.74;75.54
64841;BME280;51307;52.162;7.560;2023-12-04T06:10:01;100706.19;;;0.99;74.25
64841;BME280;51307;52.162;7.560;2023-12-04T06:12:26;100717.75;;;0.83;74.91
64841;BME280;51307;52.162;7.560;2023-12-04T06:14:52;100706.38;;;0.83;74.98
64841;BME280;51307;52.162;7.560;2023-12-04T06:17:17;100705.38;;;0.98;74.35
64841;BME280;51307;52.162;7.560;2023-12-04T06:19:43;100707.50;;;0.79;75.14
64841;BME280;51307;52.162;7.560;2023-12-04T06:22:08;100712.38;;;0.85;74.45
64841;BME280;51307;52.162;7.560;2023-12-04T06:24:34;100706.06;;;0.88;74.41
64841;BME280;51307;52.162;7.560;2023-12-04T06:27:00;100703.97;;;0.93;74.47
64841;BME280;51307;52.162;7.560;2023-12-04T06:29:25;100701.28;;;0.80;74.29
64841;BME280;51307;52.162;7.560;2023-12-04T06:31:51;100701.19;;;0.81;74.34
64841;BME280;51307;52.162;7.560;2023-12-04T06:34:17;100702.94;;;0.95;74.07
64841;BME280;51307;52.162;7.560;2023-12-04T06:36:43;100700.00;;;0.73;74.61
64841;BME280;51307;52.162;7.560;2023-12-04T06:39:11;100692.44;;;0.81;74.82
64841;BME280;51307;52.162;7.560;2023-12-04T06:41:38;100690.75;;;0.80;74.20
64841;BME280;51307;52.162;7.560;2023-12-04T06:44:05;100689.72;;;0.82;74.16
64841;BME280;51307;52.162;7.560;2023-12-04T06:46:35;100688.13;;;0.80;74.03
64841;BME280;51307;52.162;7.560;2023-12-04T06:49:05;100686.06;;;0.71;73.96
64841;BME280;51307;52.162;7.560;2023-12-04T06:51:31;100686.97;;;0.84;74.22
64841;BME280;51307;52.162;7.560;2023-12-04T06:53:57;100679.84;;;0.99;73.01
64841;BME280;51307;52.162;7.560;2023-12-04T06:56:23;100677.13;;;1.00;73.02
64841;BME280;51307;52.162;7.560;2023-12-04T06:58:48;100675.06;;;0.78;73.63
64841;BME280;51307;52.162;7.560;2023-12-04T07:01:14;100667.97;;;0.79;72.61
64841;BME280;51307;52.162;7.560;2023-12-04T07:03:39;100668.84;;;0.79;72.86
64841;BME280;51307;52.162;7.560;2023-12-04T07:06:05;100670.09;;;0.74;73.03
64841;BME280;51307;52.162;7.560;2023-12-04T07:08:31;100657.66;;;0.76;72.90
64841;BME280;51307;52.162;7.560;2023-12-04T07:10:57;100655.56;;;0.81;72.72
64841;BME280;51307;52.162;7.560;2023-12-04T07:13:22;100655.63;;;0.94;72.20
64841;BME280;51307;52.162;7.560;2023-12-04T07:15:47;100644.38;;;0.77;72.05
64841;BME280;51307;52.162;7.560;2023-12-04T07:18:13;100652.00;;;0.82;72.24
64841;BME280;51307;52.162;7.560;2023-12-04T07:20:38;100644.47;;;0.76;71.94
64841;BME280;51307;52.162;7.560;2023-12-04T07:23:04;100638.56;;;0.99;71.10
64841;BME280;51307;52.162;7.560;2023-12-04T07:25:29;100642.09;;;0.85;71.17
64841;BME280;51307;52.162;7.560;2023-12-04T07:27:55;100648.22;;;0.86;71.27
64841;BME280;51307;52.162;7.560;2023-12-04T07:30:23;100644.22;;;0.93;70.62
64841;BME280;51307;52.162;7.560;2023-12-04T07:32:50;100635.34;;;0.81;70.99
64841;BME280;51307;52.162;7.560;2023-12-04T07:35:15;100640.44;;;0.97;70.59
64841;BME280;51307;52.162;7.560;2023-12-04T07:37:43;100632.56;;;0.70;71.71
64841;BME280;51307;52.162;7.560;2023-12-04T07:40:09;100640.75;;;0.93;70.58
64841;BME280;51307;52.162;7.560;2023-12-04T07:42:36;100641.38;;;0.96;70.27
64841;BME280;51307;52.162;7.560;2023-12-04T07:45:02;100633.84;;;0.77;70.93
64841;BME280;51307;52.162;7.560;2023-12-04T07:47:27;100638.50;;;0.87;70.79
64841;BME280;51307;52.162;7.560;2023-12-04T07:49:53;100636.81;;;0.85;70.41
64841;BME280;51307;52.162;7.560;2023-12-04T07:52:18;100632.31;;;0.88;70.47
64841;BME280;51307;52.162;7.560;2023-12-04T07:54:44;100619.25;;;0.86;69.88
64841;BME280;51307;52.162;7.560;2023-12-04T07:57:09;100618.38;;;0.85;69.85
64841;BME280;51307;52.162;7.560;2023-12-04T07:59:35;100620.94;;;1.00;69.80
64841;BME280;51307;52.162;7.560;2023-12-04T08:02:00;100617.81;;;1.08;69.21
64841;BME280;51307;52.162;7.560;2023-12-04T08:04:26;100605.13;;;1.00;69.28
64841;BME280;51307;52.162;7.560;2023-12-04T08:06:52;100605.19;;;0.73;70.60
64841;BME280;51307;52.162;7.560;2023-12-04T08:09:18;100602.50;;;1.00;68.81
64841;BME280;51307;52.162;7.560;2023-12-04T08:11:43;100604.75;;;0.79;69.06
64841;BME280;51307;52.162;7.560;2023-12-04T08:14:09;100598.72;;;0.91;68.93
64841;BME280;51307;52.162;7.560;2023-12-04T08:16:34;100598.06;;;0.88;69.54
64841;BME280;51307;52.162;7.560;2023-12-04T08:19:00;100599.84;;;0.87;69.31
64841;BME280;51307;52.162;7.560;2023-12-04T08:21:25;100588.78;;;0.82;69.22
64841;BME280;51307;52.162;7.560;2023-12-04T08:23:51;100583.19;;;0.87;69.08
64841;BME280;51307;52.162;7.560;2023-12-04T08:26:23;100582.72;;;1.07;67.88
64841;BME280;51307;52.162;7.560;2023-12-04T08:28:50;100588.66;;;0.83;69.06
64841;BME280;51307;52.162;7.560;2023-12-04T08:31:16;100577.63;;;0.91;68.08
64841;BME280;51307;52.162;7.560;2023-12-04T08:33:42;100581.41;;;0.87;68.81
64841;BME280;51307;52.162;7.560;2023-12-04T08:36:07;100579.53;;;1.02;68.04
64841;BME280;51307;52.162;7.560;2023-12-04T08:38:33;100573.09;;;0.93;67.47
64841;BME280;51307;52.162;7.560;2023-12-04T08:40:58;100566.97;;;1.06;67.58
64841;BME280;51307;52.162;7.560;2023-12-04T08:43:24;100574.78;;;0.94;68.15
64841;BME280;51307;52.162;7.560;2023-12-04T08:45:49;100563.63;;;1.16;67.25
64841;BME280;51307;52.162;7.560;2023-12-04T08:48:15;100561.41;;;1.10;67.41
64841;BME280;51307;52.162;7.560;2023-12-04T08:50:40;100565.53;;;1.14;66.87
64841;BME280;51307;52.162;7.560;2023-12-04T08:53:06;100559.59;;;1.11;66.97
64841;BME280;51307;52.162;7.560;2023-12-04T08:55:31;100558.88;;;0.96;67.48
64841;BME280;51307;52.162;7.560;2023-12-04T08:57:57;100564.34;;;0.93;67.30
64841;BME280;51307;52.162;7.560;2023-12-04T09:00:23;100563.19;;;1.10;66.68
64841;BME280;51307;52.162;7.560;2023-12-04T09:02:48;100561.72;;;1.18;67.27
64841;BME280;51307;52.162;7.560;2023-12-04T09:05:14;100553.19;;;1.15;66.66
64841;BME280;51307;52.162;7.560;2023-12-04T09:07:40;100557.63;;;1.14;66.08
64841;BME280;51307;52.162;7.560;2023-12-04T09:10:06;100557.38;;;0.92;67.59
64841;BME280;51307;52.162;7.560;2023-12-04T09:12:31;100545.72;;;1.09;66.91
64841;BME280;51307;52.162;7.560;2023-12-04T09:14:57;100548.75;;;1.02;66.73
64841;BME280;51307;52.162;7.560;2023-12-04T09:17:22;100545.59;;;1.23;67.83
64841;BME280;51307;52.162;7.560;2023-12-04T09:19:48;100551.50;;;1.27;68.26
64841;BME280;51307;52.162;7.560;2023-12-04T09:22:14;100545.50;;;1.12;69.33
64841;BME280;51307;52.162;7.560;2023-12-04T09:24:39;100543.28;;;1.31;69.29
64841;BME280;51307;52.162;7.560;2023-12-04T09:27:05;100537.16;;;1.44;70.17
64841;BME280;51307;52.162;7.560;2023-12-04T09:29:32;100535.78;;;1.88;76.65
64841;BME280;51307;52.162;7.560;2023-12-04T09:31:58;100533.06;;;1.77;71.20
64841;BME280;51307;52.162;7.560;2023-12-04T09:34:23;100535.13;;;1.60;68.55
64841;BME280;51307;52.162;7.560;2023-12-04T09:36:49;100534.53;;;1.81;71.59
64841;BME280;51307;52.162;7.560;2023-12-04T09:39:14;100541.47;;;1.95;70.21
64841;BME280;51307;52.162;7.560;2023-12-04T09:41:42;100534.75;;;1.78;68.69
64841;BME280;51307;52.162;7.560;2023-12-04T09:44:09;100532.50;;;1.97;68.09
64841;BME280;51307;52.162;7.560;2023-12-04T09:46:35;100526.31;;;1.73;66.79
64841;BME280;51307;52.162;7.560;2023-12-04T09:49:02;100519.59;;;1.68;66.37
64841;BME280;51307;52.162;7.560;2023-12-04T09:51:28;100519.19;;;1.62;66.68
64841;BME280;51307;52.162;7.560;2023-12-04T09:53:54;100521.03;;;1.73;65.50
64841;BME280;51307;52.162;7.560;2023-12-04T09:56:23;100517.81;;;1.93;67.05
64841;BME280;51307;52.162;7.560;2023-12-04T09:58:52;100515.00;;;2.08;66.08
64841;BME280;51307;52.162;7.560;2023-12-04T10:01:23;100511.06;;;1.89;67.47
64841;BME280;51307;52.162;7.560;2023-12-04T10:03:50;100506.47;;;2.28;68.35
64841;BME280;51307;52.162;7.560;2023-12-04T10:06:16;100510.69;;;2.07;65.30
64841;BME280;51307;52.162;7.560;2023-12-04T10:08:45;100496.19;;;1.64;64.65
64841;BME280;51307;52.162;7.560;2023-12-04T10:11:12;100499.72;;;1.76;64.16
64841;BME280;51307;52.162;7.560;2023-12-04T10:13:37;100492.41;;;1.55;64.47
64841;BME280;51307;52.162;7.560;2023-12-04T10:16:03;100493.34;;;1.54;64.46
64841;BME280;51307;52.162;7.560;2023-12-04T10:18:31;100481.66;;;1.45;64.74
64841;BME280;51307;52.162;7.560;2023-12-04T10:20:58;100479.97;;;1.57;64.74
64841;BME280;51307;52.162;7.560;2023-12-04T10:23:44;100475.88;;;1.53;64.15
64841;BME280;51307;52.162;7.560;2023-12-04T10:26:09;100466.50;;;1.49;64.20
64841;BME280;51307;52.162;7.560;2023-12-04T10:28:39;100466.56;;;1.84;64.79
64841;BME280;51307;52.162;7.560;2023-12-04T10:31:04;100454.06;;;1.62;64.11
64841;BME280;51307;52.162;7.560;2023-12-04T10:33:32;100457.22;;;1.67;63.86
64841;BME280;51307;52.162;7.560;2023-12-04T10:35:58;100456.28;;;1.68;63.90
64841;BME280;51307;52.162;7.560;2023-12-04T10:38:23;100450.97;;;1.44;63.56
64841;BME280;51307;52.162;7.560;2023-12-04T10:40:49;100447.94;;;1.38;64.21
64841;BME280;51307;52.162;7.560;2023-12-04T10:43:23;100441.59;;;1.53;63.50
64841;BME280;51307;52.162;7.560;2023-12-04T10:45:50;100438.72;;;1.56;64.01
64841;BME280;51307;52.162;7.560;2023-12-04T10:48:18;100435.63;;;1.62;63.50
64841;BME280;51307;52.162;7.560;2023-12-04T10:50:46;100431.13;;;1.76;63.00
64841;BME280;51307;52.162;7.560;2023-12-04T10:53:14;100426.31;;;1.69;63.38
64841;BME280;51307;52.162;7.560;2023-12-04T10:55:41;100425.56;;;1.67;62.58
64841;BME280;51307;52.162;7.560;2023-12-04T10:58:13;100408.47;;;1.49;62.73
64841;BME280;51307;52.162;7.560;2023-12-04T11:00:48;100400.38;;;1.63;62.44
64841;BME280;51307;52.162;7.560;2023-12-04T11:03:20;100393.50;;;1.74;62.70
64841;BME280;51307;52.162;7.560;2023-12-04T11:05:55;100385.63;;;1.85;62.13
64841;BME280;51307;52.162;7.560;2023-12-04T11:08:23;100385.56;;;1.74;62.41
64841;BME280;51307;52.162;7.560;2023-12-04T11:10:58;100385.06;;;1.68;62.26
64841;BME280;51307;52.162;7.560;2023-12-04T11:13:28;100389.03;;;1.74;61.85
64841;BME280;51307;52.162;7.560;2023-12-04T11:16:00;100383.44;;;1.79;62.36
64841;BME280;51307;52.162;7.560;2023-12-04T11:18:31;100379.56;;;1.72;61.77
64841;BME280;51307;52.162;7.560;2023-12-04T11:21:03;100377.66;;;1.74;62.01
64841;BME280;51307;52.162;7.560;2023-12-04T11:23:31;100374.38;;;1.94;62.06
64841;BME280;51307;52.162;7.560;2023-12-04T11:25:58;100378.16;;;1.79;62.30
64841;BME280;51307;52.162;7.560;2023-12-04T11:28:27;100378.88;;;1.81;61.95
64841;BME280;51307;52.162;7.560;2023-12-04T11:30:53;100370.44;;;1.64;62.30
64841;BME280;51307;52.162;7.560;2023-12-04T11:33:20;100370.97;;;1.81;62.23
64841;BME280;51307;52.162;7.560;2023-12-04T11:35:46;100369.13;;;1.70;62.13
64841;BME280;51307;52.162;7.560;2023-12-04T11:38:14;100373.84;;;1.78;62.02
64841;BME280;51307;52.162;7.560;2023-12-04T11:40:41;100368.69;;;1.76;62.49
64841;BME280;51307;52.162;7.560;2023-12-04T11:43:25;100358.94;;;2.01;61.43
64841;BME280;51307;52.162;7.560;2023-12-04T11:45:52;100354.72;;;1.98;61.76
64841;BME280;51307;52.162;7.560;2023-12-04T11:48:22;100352.75;;;1.89;61.65
64841;BME280;51307;52.162;7.560;2023-12-04T11:50:49;100354.13;;;1.95;61.77
64841;BME280;51307;52.162;7.560;2023-12-04T11:53:15;100344.13;;;1.87;61.27
64841;BME280;51307;52.162;7.560;2023-12-04T11:55:41;100353.78;;;1.99;61.68
64841;BME280;51307;52.162;7.560;2023-12-04T11:58:11;100348.72;;;1.96;62.28
64841;BME280;51307;52.162;7.560;2023-12-04T12:00:38;100349.69;;;1.95;62.02
64841;BME280;51307;52.162;7.560;2023-12-04T12:03:07;100350.63;;;1.94;62.48
64841;BME280;51307;52.162;7.560;2023-12-04T12:05:36;100343.66;;;1.93;62.52
64841;BME280;51307;52.162;7.560;2023-12-04T12:08:05;100335.44;;;2.09;61.73
64841;BME280;51307;52.162;7.560;2023-12-04T12:10:32;100332.22;;;2.06;61.89
64841;BME280;51307;52.162;7.560;2023-12-04T12:12:58;100332.78;;;2.09;nan
64841;BME280;51307;52.162;7.560;2023-12-04T12:15:24;100325.50;;;2.13;61.83
64841;BME280;51307;52.162;7.560;2023-12-04T12:17:50;100320.47;;;2.21;61.29
64841;BME280;51307;52.162;7.560;2023-12-04T12:20:17;100321.53;;;2.07;61.75
64841;BME280;51307;52.162;7.560;2023-12-04T12:22:43;100311.91;;;2.06;62.63
64841;BME280;51307;52.162;7.560;2023-12-04T12:25:11;100318.75;;;1.97;62.29
64841;BME280;51307;52.162;7.560;2023-12-04T12:27:38;100318.28;;;2.03;62.09
64841;BME280;51307;52.162;7.560;2023-12-04T12:30:04;100310.22;;;1.94;62.60
64841;BME280;51307;52.162;7.560;2023-12-04T12:32:32;100309.53;;;2.03;62.69
64841;BME280;51307;52.162;7.560;2023-12-04T12:34:58;100308.34;;;2.07;62.31
64841;BME280;51307;52.162;7.560;2023-12-04T12:37:23;100321.66;;;2.06;61.28
64841;BME280;51307;52.162;7.560;2023-12-04T12:39:49;100301.28;;;2.19;61.09
64841;BME280;51307;52.162;7.560;2023-12-04T12:42:23;100303.06;;;2.07;61.88
64841;BME280;51307;52.162;7.560;2023-12-04T12:44:49;100306.69;;;2.29;61.06
64841;BME280;51307;52.162;7.560;2023-12-04T12:47:15;100298.16;;;2.14;61.20
64841;BME280;51307;52.162;7.560;2023-12-04T12:49:41;100291.56;;;2.19;60.78
64841;BME280;51307;52.162;7.560;2023-12-04T12:52:06;100280.75;;;2.11;60.88
64841;BME280;51307;52.162;7.560;2023-12-04T12:54:39;100280.88;;;2.21;61.81